タヒチ島 の空港の天気 - METARとTAF

タヒチ・ファアア国際空港 ( NTAA / PPT ) - フランス領ポリネシア タヒチ島
飛行場実況気象(Metar)
観測時間10/15 22:00 TAHT (10/16 08:00 UTC)
風向・風速不定 1m/s
視程10km以上
天気現象
少しの雲 雲底高度 700m
全天の8割程度の雲 雲底高度 9140m
気温26℃
湿度70%
気圧1015hPa
METARNTAA 160800Z VRB02KT 9999 FEW023 BKN300 26/20 Q1015 NOSIG
過去の天気等 Google飛行場航空写真 Wunderground天気予報

過去48時間のMETAR

飛行場予報(TAF)
発表時間: 10/15 19:00 TAHT (10/16 05:00 UTC)
予報対象時間: 15日20時 TAHT ~ 17日2時 TAHT
風向・風速不定 3m/s
視程10km以上
少しの雲 雲底高度 610m
全天の4割程度の雲 雲底高度 1520m
16日12時 TAHT ~ 16日18時 TAHT に 確率 30% で一時的に
視程3000m
天気現象しゅう雨
全天の8割程度の雲 雲底高度 430m
TAF NTAA 160500Z 1606/1712 VRB05KT 9999 FEW020 SCT050
PROB30 TEMPO 1622/1704 3000 SHRA BKN014